Time,TemperatureF,DewpointF,PressureIn,WindDirection,WindDirectionDegrees,WindSpeedMPH,WindSpeedGustMPH,Humidity,HourlyPrecipIn,Conditions,Clouds,dailyrainin,SoftwareType,DateUTC
2013-07-29 00:00:00,82.0,78.0,30.04,South,190,13.0,15.0,88,-99.99,,,-99.99,,2013-07-29 04:00:00,
2013-07-29 00:32:00,82.0,78.0,30.04,South,190,13.0,15.0,88,-99.99,,,-99.99,,2013-07-29 04:32:00,
2013-07-29 00:43:00,82.0,78.0,30.04,South,190,13.0,15.0,88,-99.99,,,-99.99,,2013-07-29 04:43:00,
2013-07-29 00:53:00,82.0,78.0,30.04,South,190,13.0,15.0,88,-99.99,,,-99.99,,2013-07-29 04:53:00,
2013-07-29 01:00:00,82.0,78.0,30.05,SSW,210,13.0,16.0,87,-99.99,,,-99.99,,2013-07-29 05:00:00,
2013-07-29 01:42:00,82.0,78.0,30.05,SSW,210,13.0,16.0,87,-99.99,,,-99.99,,2013-07-29 05:42:00,
2013-07-29 01:53:00,82.0,78.0,30.05,SSW,210,13.0,16.0,87,-99.99,,,-99.99,,2013-07-29 05:53:00,
2013-07-29 02:00:00,81.0,78.0,30.04,SSW,210,12.0,13.0,88,-99.99,,,-99.99,,2013-07-29 06:00:00,
2013-07-29 02:32:00,81.0,78.0,30.04,SSW,210,12.0,13.0,88,-99.99,,,-99.99,,2013-07-29 06:32:00,
2013-07-29 02:43:00,81.0,78.0,30.04,SSW,210,12.0,13.0,88,-99.99,,,-99.99,,2013-07-29 06:43:00,
2013-07-29 02:52:00,81.0,78.0,30.04,SSW,210,12.0,13.0,88,-99.99,,,-99.99,,2013-07-29 06:52:00,
2013-07-29 03:00:00,81.0,76.0,30.03,SW,220,15.0,17.0,85,-99.99,,,-99.99,,2013-07-29 07:00:00,
2013-07-29 03:33:00,81.0,76.0,30.03,SW,220,15.0,17.0,85,-99.99,,,-99.99,,2013-07-29 07:33:00,
2013-07-29 03:43:00,81.0,76.0,30.03,SW,220,15.0,17.0,85,-99.99,,,-99.99,,2013-07-29 07:43:00,
2013-07-29 03:53:00,81.0,76.0,30.03,SW,220,15.0,17.0,85,-99.99,,,-99.99,,2013-07-29 07:53:00,
2013-07-29 04:00:00,81.0,76.0,30.03,SW,220,12.0,15.0,85,-99.99,,,-99.99,,2013-07-29 08:00:00,
2013-07-29 04:33:00,81.0,76.0,30.03,SW,220,12.0,15.0,85,-99.99,,,-99.99,,2013-07-29 08:33:00,
2013-07-29 04:42:00,81.0,76.0,30.03,SW,220,12.0,15.0,85,-99.99,,,-99.99,,2013-07-29 08:42:00,
2013-07-29 04:52:00,81.0,76.0,30.03,SW,220,12.0,15.0,85,-99.99,,,-99.99,,2013-07-29 08:52:00,
2013-07-29 05:00:00,81.0,76.0,30.04,WSW,240,7.0,10.0,86,-99.99,,,-99.99,,2013-07-29 09:00:00,
2013-07-29 05:33:00,81.0,76.0,30.04,WSW,240,7.0,10.0,86,-99.99,,,-99.99,,2013-07-29 09:33:00,
2013-07-29 05:43:00,81.0,76.0,30.04,WSW,240,7.0,10.0,86,-99.99,,,-99.99,,2013-07-29 09:43:00,
2013-07-29 05:53:00,81.0,76.0,30.04,WSW,240,7.0,10.0,86,-99.99,,,-99.99,,2013-07-29 09:53:00,
2013-07-29 06:00:00,79.0,76.0,30.06,West,270,3.0,3.0,91,-99.99,,,-99.99,,2013-07-29 10:00:00,
2013-07-29 06:32:00,79.0,76.0,30.06,West,270,3.0,3.0,91,-99.99,,,-99.99,,2013-07-29 10:32:00,
2013-07-29 06:43:00,79.0,76.0,30.06,West,270,3.0,3.0,91,-99.99,,,-99.99,,2013-07-29 10:43:00,
2013-07-29 06:52:00,79.0,76.0,30.06,West,270,3.0,3.0,91,-99.99,,,-99.99,,2013-07-29 10:52:00,
2013-07-29 07:00:00,79.0,77.0,30.08,WSW,240,2.0,3.0,92,-99.99,,,-99.99,,2013-07-29 11:00:00,
2013-07-29 07:33:00,79.0,77.0,30.08,WSW,240,2.0,3.0,92,-99.99,,,-99.99,,2013-07-29 11:33:00,
2013-07-29 07:53:00,79.0,77.0,30.08,WSW,240,2.0,3.0,92,-99.99,,,-99.99,,2013-07-29 11:53:00,
2013-07-29 08:00:00,81.0,77.0,30.09,WSW,250,5.0,7.0,87,-99.99,,,-99.99,,2013-07-29 12:00:00,
2013-07-29 08:43:00,81.0,77.0,30.09,WSW,250,5.0,7.0,87,-99.99,,,-99.99,,2013-07-29 12:43:00,
2013-07-29 10:00:00,82.0,76.0,30.10,SSW,210,9.0,10.0,81,-99.99,,,-99.99,,2013-07-29 14:00:00,
2013-07-29 10:42:00,82.0,76.0,30.10,SSW,210,9.0,10.0,81,-99.99,,,-99.99,,2013-07-29 14:42:00,
2013-07-29 10:53:00,82.0,76.0,30.10,SSW,210,9.0,10.0,81,-99.99,,,-99.99,,2013-07-29 14:53:00,
2013-07-29 12:00:00,84.0,76.0,30.12,South,190,7.0,8.0,78,-99.99,,,-99.99,,2013-07-29 16:00:00,
2013-07-29 12:44:00,84.0,76.0,30.12,South,190,7.0,8.0,78,-99.99,,,-99.99,,2013-07-29 16:44:00,
2013-07-29 13:00:00,84.0,76.0,30.11,South,180,12.0,13.0,78,-99.99,,,-99.99,,2013-07-29 17:00:00,
2013-07-29 13:53:00,84.0,76.0,30.11,South,180,12.0,13.0,78,-99.99,,,-99.99,,2013-07-29 17:53:00,
2013-07-29 14:00:00,83.0,77.0,30.11,SSW,200,12.0,15.0,81,-99.99,,,-99.99,,2013-07-29 18:00:00,
2013-07-29 14:32:00,83.0,77.0,30.11,SSW,200,12.0,15.0,81,-99.99,,,-99.99,,2013-07-29 18:32:00,
2013-07-29 14:43:00,83.0,77.0,30.11,SSW,200,12.0,15.0,81,-99.99,,,-99.99,,2013-07-29 18:43:00,
2013-07-29 14:52:00,83.0,77.0,30.11,SSW,200,12.0,15.0,81,-99.99,,,-99.99,,2013-07-29 18:52:00,
2013-07-29 15:33:00,82.0,77.0,30.08,South,190,14.0,17.0,83,-99.99,,,-99.99,,2013-07-29 19:33:00,
2013-07-29 15:53:00,82.0,77.0,30.08,South,190,14.0,17.0,83,-99.99,,,-99.99,,2013-07-29 19:53:00,
2013-07-29 16:00:00,82.0,77.0,30.09,SSW,200,17.0,20.0,83,-99.99,,,-99.99,,2013-07-29 20:00:00,
2013-07-29 16:44:00,82.0,77.0,30.09,SSW,200,17.0,20.0,83,-99.99,,,-99.99,,2013-07-29 20:44:00,
2013-07-29 16:53:00,82.0,77.0,30.09,SSW,200,17.0,20.0,83,-99.99,,,-99.99,,2013-07-29 20:53:00,
2013-07-29 17:00:00,83.0,76.0,30.09,SSW,200,16.0,18.0,81,-99.99,,,-99.99,,2013-07-29 21:00:00,
2013-07-29 17:32:00,83.0,76.0,30.09,SSW,200,16.0,18.0,81,-99.99,,,-99.99,,2013-07-29 21:32:00,
2013-07-29 17:52:00,83.0,76.0,30.09,SSW,200,16.0,18.0,81,-99.99,,,-99.99,,2013-07-29 21:52:00,
2013-07-29 18:00:00,83.0,74.0,30.09,SSW,200,15.0,20.0,76,-99.99,,,-99.99,,2013-07-29 22:00:00,
2013-07-29 18:32:00,83.0,74.0,30.09,SSW,200,15.0,20.0,76,-99.99,,,-99.99,,2013-07-29 22:32:00,
2013-07-29 18:43:00,83.0,74.0,30.09,SSW,200,15.0,20.0,76,-99.99,,,-99.99,,2013-07-29 22:43:00,
2013-07-29 19:43:00,82.0,75.0,30.13,WSW,250,5.0,7.0,79,-99.99,,,-99.99,,2013-07-29 23:43:00,
2013-07-29 22:43:00,80.0,77.0,30.16,SSE,150,3.0,5.0,89,-99.99,,,-99.99,,2013-07-30 02:43:00,
2013-07-29 22:52:00,80.0,77.0,30.16,SSE,150,3.0,5.0,89,-99.99,,,-99.99,,2013-07-30 02:52:00,